sensor_id;sensor_type;location;lat;lon;timestamp;pressure;altitude;pressure_sealevel;temperature;humidity
69245;BME280;56357;52.304;4.870;2023-04-26T00:00:44;102181.06;;;16.43;47.22
69245;BME280;56357;52.304;4.870;2023-04-26T00:03:11;102168.16;;;16.42;47.23
69245;BME280;56357;52.304;4.870;2023-04-26T00:05:38;102175.25;;;16.45;47.07
69245;BME280;56357;52.304;4.870;2023-04-26T00:08:04;102176.19;;;16.39;47.09
69245;BME280;56357;52.304;4.870;2023-04-26T00:10:31;102173.16;;;16.40;47.40
69245;BME280;56357;52.304;4.870;2023-04-26T00:12:57;102182.25;;;16.36;46.83
69245;BME280;56357;52.304;4.870;2023-04-26T00:15:24;102183.25;;;16.41;47.33
69245;BME280;56357;52.304;4.870;2023-04-26T00:17:50;102173.72;;;16.31;47.32
69245;BME280;56357;52.304;4.870;2023-04-26T00:20:17;102183.56;;;16.33;47.34
69245;BME280;56357;52.304;4.870;2023-04-26T00:22:44;102178.09;;;16.27;47.36
69245;BME280;56357;52.304;4.870;2023-04-26T00:25:10;102181.09;;;16.25;47.46
69245;BME280;56357;52.304;4.870;2023-04-26T00:27:38;102177.84;;;16.28;47.40
69245;BME280;56357;52.304;4.870;2023-04-26T00:30:05;102174.91;;;16.23;47.80
69245;BME280;56357;52.304;4.870;2023-04-26T00:32:31;102169.09;;;16.25;47.49
69245;BME280;56357;52.304;4.870;2023-04-26T00:34:59;102164.81;;;16.22;47.38
69245;BME280;56357;52.304;4.870;2023-04-26T00:37:25;102176.00;;;16.22;47.31
69245;BME280;56357;52.304;4.870;2023-04-26T00:39:52;102172.34;;;16.22;47.53
69245;BME280;56357;52.304;4.870;2023-04-26T00:42:18;102175.38;;;16.20;47.47
69245;BME280;56357;52.304;4.870;2023-04-26T00:44:45;102170.28;;;16.17;47.36
69245;BME280;56357;52.304;4.870;2023-04-26T00:47:11;102171.34;;;16.16;47.55
69245;BME280;56357;52.304;4.870;2023-04-26T00:49:38;102168.81;;;16.15;47.34
69245;BME280;56357;52.304;4.870;2023-04-26T00:52:05;102175.94;;;16.11;47.50
69245;BME280;56357;52.304;4.870;2023-04-26T00:54:32;102166.47;;;16.12;47.84
69245;BME280;56357;52.304;4.870;2023-04-26T00:56:58;102168.44;;;16.11;47.38
69245;BME280;56357;52.304;4.870;2023-04-26T00:59:25;102163.78;;;16.05;47.77
69245;BME280;56357;52.304;4.870;2023-04-26T01:01:52;102176.66;;;16.06;47.48
69245;BME280;56357;52.304;4.870;2023-04-26T01:04:18;102166.56;;;16.05;47.60
69245;BME280;56357;52.304;4.870;2023-04-26T01:06:46;102162.06;;;16.04;47.64
69245;BME280;56357;52.304;4.870;2023-04-26T01:09:12;102167.50;;;15.99;47.33
69245;BME280;56357;52.304;4.870;2023-04-26T01:11:40;102167.25;;;16.01;47.70
69245;BME280;56357;52.304;4.870;2023-04-26T01:14:07;102168.56;;;15.98;47.74
69245;BME280;56357;52.304;4.870;2023-04-26T01:16:35;102164.34;;;15.96;47.72
69245;BME280;56357;52.304;4.870;2023-04-26T01:19:09;102166.25;;;15.95;47.42
69245;BME280;56357;52.304;4.870;2023-04-26T01:21:37;102168.00;;;15.96;47.72
69245;BME280;56357;52.304;4.870;2023-04-26T01:24:05;102175.03;;;15.99;47.52
69245;BME280;56357;52.304;4.870;2023-04-26T01:26:32;102173.59;;;15.96;47.51
69245;BME280;56357;52.304;4.870;2023-04-26T01:28:58;102180.09;;;15.90;47.84
69245;BME280;56357;52.304;4.870;2023-04-26T01:31:25;102173.66;;;15.90;47.67
69245;BME280;56357;52.304;4.870;2023-04-26T01:33:52;102172.41;;;15.86;47.52
69245;BME280;56357;52.304;4.870;2023-04-26T01:36:18;102178.13;;;15.91;47.66
69245;BME280;56357;52.304;4.870;2023-04-26T01:38:45;102173.03;;;15.88;47.54
69245;BME280;56357;52.304;4.870;2023-04-26T01:41:11;102176.81;;;15.93;47.43
69245;BME280;56357;52.304;4.870;2023-04-26T01:43:37;102172.97;;;15.94;47.53
69245;BME280;56357;52.304;4.870;2023-04-26T01:46:04;102171.22;;;15.93;47.59
69245;BME280;56357;52.304;4.870;2023-04-26T01:48:30;102163.84;;;15.99;47.50
69245;BME280;56357;52.304;4.870;2023-04-26T01:50:57;102161.06;;;15.99;47.40
69245;BME280;56357;52.304;4.870;2023-04-26T01:53:23;102161.63;;;15.89;47.60
69245;BME280;56357;52.304;4.870;2023-04-26T01:55:50;102160.63;;;15.84;47.99
69245;BME280;56357;52.304;4.870;2023-04-26T01:58:16;102152.47;;;15.82;47.64
69245;BME280;56357;52.304;4.870;2023-04-26T02:00:42;102165.81;;;15.80;47.49
69245;BME280;56357;52.304;4.870;2023-04-26T02:03:09;102164.56;;;15.76;47.47
69245;BME280;56357;52.304;4.870;2023-04-26T02:05:35;102163.03;;;15.80;47.64
69245;BME280;56357;52.304;4.870;2023-04-26T02:08:02;102165.75;;;15.87;47.31
69245;BME280;56357;52.304;4.870;2023-04-26T02:10:28;102162.22;;;15.91;47.16
69245;BME280;56357;52.304;4.870;2023-04-26T02:12:55;102162.88;;;15.75;47.43
69245;BME280;56357;52.304;4.870;2023-04-26T02:15:21;102165.34;;;15.83;47.50
69245;BME280;56357;52.304;4.870;2023-04-26T02:17:48;102164.03;;;15.86;46.74
69245;BME280;56357;52.304;4.870;2023-04-26T02:20:14;102159.53;;;15.85;47.35
69245;BME280;56357;52.304;4.870;2023-04-26T02:22:41;102171.34;;;15.87;47.27
69245;BME280;56357;52.304;4.870;2023-04-26T02:25:07;102161.47;;;15.84;47.33
69245;BME280;56357;52.304;4.870;2023-04-26T02:27:34;102155.28;;;15.82;47.60
69245;BME280;56357;52.304;4.870;2023-04-26T02:30:00;102164.88;;;15.86;47.43
69245;BME280;56357;52.304;4.870;2023-04-26T02:32:27;102160.47;;;15.79;47.58
69245;BME280;56357;52.304;4.870;2023-04-26T02:34:54;102167.13;;;15.78;47.55
69245;BME280;56357;52.304;4.870;2023-04-26T02:37:20;102164.09;;;15.79;47.42
69245;BME280;56357;52.304;4.870;2023-04-26T02:39:50;102163.47;;;15.77;47.71
69245;BME280;56357;52.304;4.870;2023-04-26T02:42:16;102163.47;;;15.77;47.51
69245;BME280;56357;52.304;4.870;2023-04-26T02:44:43;102150.38;;;15.78;47.56
69245;BME280;56357;52.304;4.870;2023-04-26T02:47:10;102155.09;;;15.77;47.58
69245;BME280;56357;52.304;4.870;2023-04-26T02:49:36;102152.53;;;15.76;47.21
69245;BME280;56357;52.304;4.870;2023-04-26T02:52:03;102150.84;;;15.75;47.83
69245;BME280;56357;52.304;4.870;2023-04-26T02:54:29;102151.09;;;15.73;47.59
69245;BME280;56357;52.304;4.870;2023-04-26T02:56:56;102148.06;;;15.75;47.57
69245;BME280;56357;52.304;4.870;2023-04-26T02:59:23;102151.22;;;15.78;47.60
69245;BME280;56357;52.304;4.870;2023-04-26T03:01:49;102149.31;;;15.79;47.41
69245;BME280;56357;52.304;4.870;2023-04-26T03:04:15;102152.53;;;15.76;47.97
69245;BME280;56357;52.304;4.870;2023-04-26T03:06:42;102151.47;;;15.77;47.74
69245;BME280;56357;52.304;4.870;2023-04-26T03:09:08;102146.72;;;15.77;47.75
69245;BME280;56357;52.304;4.870;2023-04-26T03:11:35;102146.97;;;15.76;48.11
69245;BME280;56357;52.304;4.870;2023-04-26T03:14:01;102144.16;;;15.76;47.76
69245;BME280;56357;52.304;4.870;2023-04-26T03:16:27;102147.34;;;15.79;47.62
69245;BME280;56357;52.304;4.870;2023-04-26T03:18:54;102151.72;;;15.75;47.68
69245;BME280;56357;52.304;4.870;2023-04-26T03:21:20;102142.72;;;15.73;47.90
69245;BME280;56357;52.304;4.870;2023-04-26T03:23:47;102153.41;;;15.76;47.75
69245;BME280;56357;52.304;4.870;2023-04-26T03:26:13;102150.53;;;15.83;47.87
69245;BME280;56357;52.304;4.870;2023-04-26T03:28:40;102143.78;;;15.90;47.62
69245;BME280;56357;52.304;4.870;2023-04-26T03:31:06;102141.75;;;15.79;47.49
69245;BME280;56357;52.304;4.870;2023-04-26T03:33:33;102137.81;;;15.87;47.52
69245;BME280;56357;52.304;4.870;2023-04-26T03:35:59;102144.00;;;15.89;47.46
69245;BME280;56357;52.304;4.870;2023-04-26T03:38:26;102132.22;;;15.87;47.45
69245;BME280;56357;52.304;4.870;2023-04-26T03:40:52;102137.25;;;15.96;47.23
69245;BME280;56357;52.304;4.870;2023-04-26T03:43:18;102133.44;;;15.91;46.98
69245;BME280;56357;52.304;4.870;2023-04-26T03:45:46;102139.03;;;15.91;47.62
69245;BME280;56357;52.304;4.870;2023-04-26T03:48:14;102141.19;;;15.89;47.58
69245;BME280;56357;52.304;4.870;2023-04-26T03:50:40;102138.81;;;15.92;47.49
69245;BME280;56357;52.304;4.870;2023-04-26T03:53:09;102151.69;;;15.93;47.58
69245;BME280;56357;52.304;4.870;2023-04-26T03:55:36;102151.06;;;15.91;47.45
69245;BME280;56357;52.304;4.870;2023-04-26T03:58:02;102143.06;;;15.95;47.74
69245;BME280;56357;52.304;4.870;2023-04-26T04:00:38;102140.25;;;15.95;47.35
69245;BME280;56357;52.304;4.870;2023-04-26T04:03:05;102131.31;;;16.04;47.12
69245;BME280;56357;52.304;4.870;2023-04-26T04:05:32;102133.91;;;16.06;47.04
69245;BME280;56357;52.304;4.870;2023-04-26T04:07:59;102121.38;;;16.08;47.04
69245;BME280;56357;52.304;4.870;2023-04-26T04:10:26;102119.69;;;16.07;47.25
69245;BME280;56357;52.304;4.870;2023-04-26T04:12:52;102129.75;;;16.08;47.03
69245;BME280;56357;52.304;4.870;2023-04-26T04:15:19;102125.09;;;16.02;46.69
69245;BME280;56357;52.304;4.870;2023-04-26T04:17:45;102128.06;;;16.07;46.87
69245;BME280;56357;52.304;4.870;2023-04-26T04:20:12;102136.44;;;16.07;46.77
69245;BME280;56357;52.304;4.870;2023-04-26T04:22:38;102133.16;;;16.10;46.66
69245;BME280;56357;52.304;4.870;2023-04-26T04:25:08;102132.09;;;16.11;46.83
69245;BME280;56357;52.304;4.870;2023-04-26T04:27:36;102132.47;;;16.15;46.88
69245;BME280;56357;52.304;4.870;2023-04-26T04:30:06;102137.53;;;16.06;46.96
69245;BME280;56357;52.304;4.870;2023-04-26T04:32:33;102133.91;;;16.06;46.85
69245;BME280;56357;52.304;4.870;2023-04-26T04:35:00;102135.59;;;16.07;46.88
69245;BME280;56357;52.304;4.870;2023-04-26T04:37:27;102134.97;;;16.05;47.07
69245;BME280;56357;52.304;4.870;2023-04-26T04:39:54;102134.97;;;16.05;46.86
69245;BME280;56357;52.304;4.870;2023-04-26T04:42:20;102134.53;;;16.08;47.01
69245;BME280;56357;52.304;4.870;2023-04-26T04:44:47;102137.06;;;16.09;47.00
69245;BME280;56357;52.304;4.870;2023-04-26T04:47:14;102132.09;;;16.11;47.09
69245;BME280;56357;52.304;4.870;2023-04-26T04:49:41;102127.34;;;16.12;46.76
69245;BME280;56357;52.304;4.870;2023-04-26T04:52:08;102132.84;;;16.18;46.92
69245;BME280;56357;52.304;4.870;2023-04-26T04:54:34;102134.41;;;16.14;46.79
69245;BME280;56357;52.304;4.870;2023-04-26T04:57:01;102131.97;;;16.18;47.20
69245;BME280;56357;52.304;4.870;2023-04-26T04:59:28;102138.69;;;16.17;47.20
69245;BME280;56357;52.304;4.870;2023-04-26T05:01:54;102138.69;;;16.17;47.17
69245;BME280;56357;52.304;4.870;2023-04-26T05:04:21;102141.34;;;16.23;46.67
69245;BME280;56357;52.304;4.870;2023-04-26T05:06:47;102140.16;;;16.19;47.09
69245;BME280;56357;52.304;4.870;2023-04-26T05:09:13;102147.22;;;16.33;47.39
69245;BME280;56357;52.304;4.870;2023-04-26T05:11:40;102139.34;;;16.30;46.97
69245;BME280;56357;52.304;4.870;2023-04-26T05:14:06;102145.97;;;16.47;47.14
69245;BME280;56357;52.304;4.870;2023-04-26T05:16:33;102149.78;;;16.35;47.29
69245;BME280;56357;52.304;4.870;2023-04-26T05:18:59;102151.97;;;16.33;47.49
69245;BME280;56357;52.304;4.870;2023-04-26T05:21:26;102155.78;;;16.38;47.73
69245;BME280;56357;52.304;4.870;2023-04-26T05:23:52;102156.00;;;16.37;47.29
69245;BME280;56357;52.304;4.870;2023-04-26T05:26:19;102155.25;;;16.48;47.00
69245;BME280;56357;52.304;4.870;2023-04-26T05:28:45;102151.34;;;16.49;46.82
69245;BME280;56357;52.304;4.870;2023-04-26T05:31:11;102154.03;;;16.56;47.13
69245;BME280;56357;52.304;4.870;2023-04-26T05:33:38;102157.78;;;16.50;47.46
69245;BME280;56357;52.304;4.870;2023-04-26T05:36:05;102150.88;;;16.64;47.93
69245;BME280;56357;52.304;4.870;2023-04-26T05:38:31;102148.69;;;16.66;46.99
69245;BME280;56357;52.304;4.870;2023-04-26T05:40:57;102155.50;;;16.70;47.20
69245;BME280;56357;52.304;4.870;2023-04-26T05:43:24;102159.28;;;16.75;47.47
69245;BME280;56357;52.304;4.870;2023-04-26T05:45:54;102158.94;;;16.72;47.31
69245;BME280;56357;52.304;4.870;2023-04-26T05:48:22;102157.09;;;16.77;47.17
69245;BME280;56357;52.304;4.870;2023-04-26T05:50:50;102158.72;;;16.73;49.17
69245;BME280;56357;52.304;4.870;2023-04-26T05:53:17;102158.31;;;16.70;47.06
69245;BME280;56357;52.304;4.870;2023-04-26T05:55:44;102163.50;;;16.55;46.81
69245;BME280;56357;52.304;4.870;2023-04-26T05:58:11;102161.81;;;16.54;47.32
69245;BME280;56357;52.304;4.870;2023-04-26T06:00:38;102158.69;;;16.62;47.33
69245;BME280;56357;52.304;4.870;2023-04-26T06:03:05;102159.41;;;16.69;46.63
69245;BME280;56357;52.304;4.870;2023-04-26T06:05:31;102164.06;;;16.75;46.80
69245;BME280;56357;52.304;4.870;2023-04-26T06:07:58;102166.00;;;16.86;46.92
69245;BME280;56357;52.304;4.870;2023-04-26T06:10:25;102173.44;;;16.92;47.17
69245;BME280;56357;52.304;4.870;2023-04-26T06:12:52;102180.13;;;16.91;46.30
69245;BME280;56357;52.304;4.870;2023-04-26T06:15:18;102170.28;;;16.88;46.58
69245;BME280;56357;52.304;4.870;2023-04-26T06:17:44;102170.91;;;16.90;47.56
69245;BME280;56357;52.304;4.870;2023-04-26T06:20:11;102179.03;;;16.92;46.43
69245;BME280;56357;52.304;4.870;2023-04-26T06:22:37;102185.25;;;16.94;45.75
69245;BME280;56357;52.304;4.870;2023-04-26T06:25:04;102184.91;;;17.02;46.67
69245;BME280;56357;52.304;4.870;2023-04-26T06:27:31;102187.06;;;16.88;46.47
69245;BME280;56357;52.304;4.870;2023-04-26T06:29:57;102193.50;;;16.89;46.92
69245;BME280;56357;52.304;4.870;2023-04-26T06:32:25;102205.91;;;16.81;46.72
69245;BME280;56357;52.304;4.870;2023-04-26T06:34:51;102205.91;;;16.81;46.83
69245;BME280;56357;52.304;4.870;2023-04-26T06:37:17;102213.09;;;16.89;47.14
69245;BME280;56357;52.304;4.870;2023-04-26T06:39:44;102212.47;;;16.87;47.00
69245;BME280;56357;52.304;4.870;2023-04-26T06:42:10;102209.69;;;16.98;47.33
69245;BME280;56357;52.304;4.870;2023-04-26T06:44:37;102210.91;;;16.91;47.28
69245;BME280;56357;52.304;4.870;2023-04-26T06:47:03;102211.41;;;16.88;47.41
69245;BME280;56357;52.304;4.870;2023-04-26T06:49:34;102215.41;;;16.80;47.70
69245;BME280;56357;52.304;4.870;2023-04-26T06:52:00;102217.13;;;16.93;47.67
69245;BME280;56357;52.304;4.870;2023-04-26T06:54:28;102216.63;;;16.84;47.53
69245;BME280;56357;52.304;4.870;2023-04-26T06:56:55;102205.91;;;16.81;47.64
69245;BME280;56357;52.304;4.870;2023-04-26T06:59:21;102205.94;;;17.04;47.28
69245;BME280;56357;52.304;4.870;2023-04-26T07:01:48;102203.50;;;16.96;47.29
69245;BME280;56357;52.304;4.870;2023-04-26T07:04:14;102199.88;;;17.07;47.16
69245;BME280;56357;52.304;4.870;2023-04-26T07:06:43;102201.44;;;17.03;47.31
69245;BME280;56357;52.304;4.870;2023-04-26T07:09:09;102200.59;;;17.03;47.19
69245;BME280;56357;52.304;4.870;2023-04-26T07:11:36;102201.09;;;17.00;47.91
69245;BME280;56357;52.304;4.870;2023-04-26T07:14:03;102204.69;;;16.89;48.03
69245;BME280;56357;52.304;4.870;2023-04-26T07:16:30;102199.72;;;16.91;48.13
69245;BME280;56357;52.304;4.870;2023-04-26T07:18:56;102197.09;;;17.07;48.27
69245;BME280;56357;52.304;4.870;2023-04-26T07:21:23;102194.03;;;17.09;47.72
69245;BME280;56357;52.304;4.870;2023-04-26T07:23:54;102198.91;;;17.02;47.49
69245;BME280;56357;52.304;4.870;2023-04-26T07:26:21;102204.00;;;17.05;48.01
69245;BME280;56357;52.304;4.870;2023-04-26T07:28:50;102198.75;;;16.97;47.50
69245;BME280;56357;52.304;4.870;2023-04-26T07:31:17;102205.81;;;16.88;48.01
69245;BME280;56357;52.304;4.870;2023-04-26T07:33:43;102206.88;;;16.87;49.03
69245;BME280;56357;52.304;4.870;2023-04-26T07:36:10;102208.50;;;16.94;48.24
69245;BME280;56357;52.304;4.870;2023-04-26T07:38:37;102212.09;;;16.83;48.82
69245;BME280;56357;52.304;4.870;2023-04-26T07:41:03;102215.41;;;16.80;48.38
69245;BME280;56357;52.304;4.870;2023-04-26T07:43:30;102206.50;;;16.83;48.85
69245;BME280;56357;52.304;4.870;2023-04-26T07:46:00;102214.06;;;16.83;48.56
69245;BME280;56357;52.304;4.870;2023-04-26T07:48:27;102214.53;;;16.80;48.70
69245;BME280;56357;52.304;4.870;2023-04-26T07:50:53;102215.16;;;16.82;48.17
69245;BME280;56357;52.304;4.870;2023-04-26T07:53:21;102220.13;;;16.80;48.01
69245;BME280;56357;52.304;4.870;2023-04-26T07:55:49;102225.09;;;16.78;47.68
69245;BME280;56357;52.304;4.870;2023-04-26T07:58:16;102225.28;;;16.83;47.82
69245;BME280;56357;52.304;4.870;2023-04-26T08:00:43;102225.72;;;16.80;47.24
69245;BME280;56357;52.304;4.870;2023-04-26T08:03:09;102228.78;;;16.78;47.70
69245;BME280;56357;52.304;4.870;2023-04-26T08:05:36;102232.31;;;16.85;48.91
69245;BME280;56357;52.304;4.870;2023-04-26T08:08:03;102237.16;;;16.78;47.48
69245;BME280;56357;52.304;4.870;2023-04-26T08:10:29;102244.31;;;17.04;47.89
69245;BME280;56357;52.304;4.870;2023-04-26T08:12:56;102236.50;;;16.94;46.80
69245;BME280;56357;52.304;4.870;2023-04-26T08:15:27;102240.72;;;16.97;47.23
69245;BME280;56357;52.304;4.870;2023-04-26T08:17:53;102243.69;;;17.02;47.85
69245;BME280;56357;52.304;4.870;2023-04-26T08:20:20;102247.78;;;16.88;47.63
69245;BME280;56357;52.304;4.870;2023-04-26T08:22:46;102245.22;;;16.86;47.40
69245;BME280;56357;52.304;4.870;2023-04-26T08:25:14;102247.63;;;16.71;47.69
69245;BME280;56357;52.304;4.870;2023-04-26T08:27:40;102248.19;;;16.62;47.88
69245;BME280;56357;52.304;4.870;2023-04-26T08:30:09;102255.09;;;16.59;48.23
69245;BME280;56357;52.304;4.870;2023-04-26T08:32:35;102248.97;;;16.51;48.55
69245;BME280;56357;52.304;4.870;2023-04-26T08:35:02;102250.50;;;16.46;48.85
69245;BME280;56357;52.304;4.870;2023-04-26T08:37:29;102253.94;;;16.48;49.07
69245;BME280;56357;52.304;4.870;2023-04-26T08:39:56;102244.22;;;16.51;49.11
69245;BME280;56357;52.304;4.870;2023-04-26T08:42:25;102243.13;;;16.52;49.00
69245;BME280;56357;52.304;4.870;2023-04-26T08:44:53;102239.16;;;16.41;49.14
69245;BME280;56357;52.304;4.870;2023-04-26T08:47:29;102234.97;;;16.51;49.44
69245;BME280;56357;52.304;4.870;2023-04-26T08:50:02;102235.75;;;16.58;48.53
69245;BME280;56357;52.304;4.870;2023-04-26T08:52:31;102230.91;;;16.65;48.41
69245;BME280;56357;52.304;4.870;2023-04-26T08:54:59;102228.81;;;16.60;48.57
69245;BME280;56357;52.304;4.870;2023-04-26T08:57:26;102219.03;;;16.69;48.31
69245;BME280;56357;52.304;4.870;2023-04-26T08:59:54;102219.03;;;16.69;48.83
69245;BME280;56357;52.304;4.870;2023-04-26T09:02:22;102223.25;;;16.72;48.58
69245;BME280;56357;52.304;4.870;2023-04-26T09:04:50;102223.63;;;16.75;48.57
69245;BME280;56357;52.304;4.870;2023-04-26T09:07:21;102218.28;;;16.74;48.82
69245;BME280;56357;52.304;4.870;2023-04-26T09:09:50;102213.91;;;16.78;48.46
69245;BME280;56357;52.304;4.870;2023-04-26T09:12:17;102216.88;;;16.83;48.10
69245;BME280;56357;52.304;4.870;2023-04-26T09:14:46;102220.13;;;16.80;47.87
69245;BME280;56357;52.304;4.870;2023-04-26T09:17:31;102220.28;;;16.96;50.02
69245;BME280;56357;52.304;4.870;2023-04-26T09:19:59;102215.44;;;16.92;47.80
69245;BME280;56357;52.304;4.870;2023-04-26T09:22:32;102227.19;;;16.82;47.43
69245;BME280;56357;52.304;4.870;2023-04-26T09:24:59;102218.44;;;16.79;47.30
69245;BME280;56357;52.304;4.870;2023-04-26T09:27:35;102223.63;;;16.75;47.20
69245;BME280;56357;52.304;4.870;2023-04-26T09:30:22;102229.75;;;16.84;47.58
69245;BME280;56357;52.304;4.870;2023-04-26T09:35:33;102223.66;;;16.87;47.09
69245;BME280;56357;52.304;4.870;2023-04-26T09:38:02;102228.19;;;16.88;47.56
69245;BME280;56357;52.304;4.870;2023-04-26T09:40:31;102226.63;;;16.92;47.61
69245;BME280;56357;52.304;4.870;2023-04-26T09:42:59;102230.03;;;16.94;47.27
69245;BME280;56357;52.304;4.870;2023-04-26T09:45:27;102229.06;;;17.00;46.77
69245;BME280;56357;52.304;4.870;2023-04-26T09:47:54;102226.75;;;16.97;46.83
69245;BME280;56357;52.304;4.870;2023-04-26T09:50:29;102229.78;;;16.95;47.11
69245;BME280;56357;52.304;4.870;2023-04-26T09:52:56;102233.44;;;16.96;47.42
69245;BME280;56357;52.304;4.870;2023-04-26T09:55:27;102229.09;;;17.11;47.12
69245;BME280;56357;52.304;4.870;2023-04-26T09:57:57;102229.81;;;17.07;46.99
69245;BME280;56357;52.304;4.870;2023-04-26T10:00:25;102221.19;;;17.20;46.48
69245;BME280;56357;52.304;4.870;2023-04-26T10:02:53;102213.66;;;17.20;46.63
69245;BME280;56357;52.304;4.870;2023-04-26T10:05:21;102214.97;;;17.18;46.80
69245;BME280;56357;52.304;4.870;2023-04-26T10:07:49;102217.06;;;17.22;46.55
69245;BME280;56357;52.304;4.870;2023-04-26T10:10:16;102217.66;;;17.24;46.83
69245;BME280;56357;52.304;4.870;2023-04-26T10:12:43;102215.72;;;17.25;46.82
69245;BME280;56357;52.304;4.870;2023-04-26T10:15:11;102214.63;;;17.26;49.57
69245;BME280;56357;52.304;4.870;2023-04-26T10:17:38;102216.81;;;17.24;49.68
69245;BME280;56357;52.304;4.870;2023-04-26T10:20:08;102218.03;;;17.28;49.44
69245;BME280;56357;52.304;4.870;2023-04-26T10:22:44;102216.56;;;17.37;49.47
69245;BME280;56357;52.304;4.870;2023-04-26T10:25:12;102213.16;;;17.23;49.96
69245;BME280;56357;52.304;4.870;2023-04-26T10:30:14;102211.22;;;17.35;50.11
69245;BME280;56357;52.304;4.870;2023-04-26T10:35:23;102210.97;;;17.37;49.75
69245;BME280;56357;52.304;4.870;2023-04-26T10:40:33;102211.47;;;17.34;49.07
69245;BME280;56357;52.304;4.870;2023-04-26T10:45:42;102217.31;;;17.32;49.43
69245;BME280;56357;52.304;4.870;2023-04-26T10:54:11;102204.13;;;17.21;48.58
69245;BME280;56357;52.304;4.870;2023-04-26T10:59:07;102205.72;;;17.17;48.92
69245;BME280;56357;52.304;4.870;2023-04-26T11:01:34;102209.00;;;17.14;48.87
69245;BME280;56357;52.304;4.870;2023-04-26T11:04:07;102205.97;;;17.16;48.30
69245;BME280;56357;52.304;4.870;2023-04-26T11:07:03;102200.97;;;17.18;48.49
69245;BME280;56357;52.304;4.870;2023-04-26T11:09:39;102199.28;;;17.17;48.63
69245;BME280;56357;52.304;4.870;2023-04-26T11:12:11;102207.19;;;17.20;47.69
69245;BME280;56357;52.304;4.870;2023-04-26T11:14:40;102206.47;;;17.24;47.50
69245;BME280;56357;52.304;4.870;2023-04-26T11:17:07;102192.72;;;17.23;47.34
69245;BME280;56357;52.304;4.870;2023-04-26T11:19:34;102188.44;;;17.20;46.79
69245;BME280;56357;52.304;4.870;2023-04-26T11:22:02;102191.59;;;17.24;47.49
69245;BME280;56357;52.304;4.870;2023-04-26T11:24:33;102193.69;;;17.28;46.79
69245;BME280;56357;52.304;4.870;2023-04-26T11:27:01;102194.06;;;17.32;46.33
69245;BME280;56357;52.304;4.870;2023-04-26T11:29:32;102184.06;;;17.36;46.49
69245;BME280;56357;52.304;4.870;2023-04-26T11:31:59;102180.03;;;17.44;46.46
69245;BME280;56357;52.304;4.870;2023-04-26T11:34:33;102182.84;;;17.44;45.07
69245;BME280;56357;52.304;4.870;2023-04-26T11:37:06;102185.31;;;17.52;45.94
69245;BME280;56357;52.304;4.870;2023-04-26T11:39:34;102182.72;;;17.50;45.66
69245;BME280;56357;52.304;4.870;2023-04-26T11:42:09;102181.03;;;17.61;46.81
69245;BME280;56357;52.304;4.870;2023-04-26T11:44:36;102179.09;;;17.61;46.66
69245;BME280;56357;52.304;4.870;2023-04-26T11:47:06;102183.31;;;17.75;47.59
69245;BME280;56357;52.304;4.870;2023-04-26T11:49:35;102181.53;;;17.69;48.38
69245;BME280;56357;52.304;4.870;2023-04-26T11:52:03;102186.34;;;17.85;50.08
69245;BME280;56357;52.304;4.870;2023-04-26T11:54:32;102175.03;;;17.80;47.15
69245;BME280;56357;52.304;4.870;2023-04-26T11:56:58;102180.50;;;17.87;48.43
69245;BME280;56357;52.304;4.870;2023-04-26T11:59:26;102178.44;;;17.82;48.13
69245;BME280;56357;52.304;4.870;2023-04-26T12:01:54;102188.69;;;17.77;47.61
69245;BME280;56357;52.304;4.870;2023-04-26T12:04:27;102186.16;;;17.52;47.58
69245;BME280;56357;52.304;4.870;2023-04-26T12:06:55;102181.75;;;17.56;47.94
69245;BME280;56357;52.304;4.870;2023-04-26T12:09:25;102188.91;;;17.75;48.04
69245;BME280;56357;52.304;4.870;2023-04-26T12:11:56;102177.59;;;17.82;46.72
69245;BME280;56357;52.304;4.870;2023-04-26T12:14:35;102186.53;;;17.67;47.33
69245;BME280;56357;52.304;4.870;2023-04-26T12:17:03;102186.72;;;17.77;47.23
69245;BME280;56357;52.304;4.870;2023-04-26T12:19:33;102176.47;;;17.83;46.00
69245;BME280;56357;52.304;4.870;2023-04-26T12:22:00;102183.84;;;17.61;46.59
69245;BME280;56357;52.304;4.870;2023-04-26T12:24:30;102183.94;;;17.66;46.43
69245;BME280;56357;52.304;4.870;2023-04-26T12:26:59;102187.22;;;17.86;45.82
69245;BME280;56357;52.304;4.870;2023-04-26T12:29:27;102187.13;;;17.69;45.64
69245;BME280;56357;52.304;4.870;2023-04-26T12:31:55;102189.78;;;17.64;45.65
69245;BME280;56357;52.304;4.870;2023-04-26T12:34:21;102194.69;;;17.69;45.30
69245;BME280;56357;52.304;4.870;2023-04-26T12:36:48;102193.09;;;17.61;45.90
69245;BME280;56357;52.304;4.870;2023-04-26T12:39:14;102198.34;;;17.58;46.21
69245;BME280;56357;52.304;4.870;2023-04-26T12:41:42;102200.75;;;17.77;44.78
69245;BME280;56357;52.304;4.870;2023-04-26T12:44:09;102202.44;;;17.90;44.89
69245;BME280;56357;52.304;4.870;2023-04-26T12:46:36;102194.13;;;17.95;46.26
69245;BME280;56357;52.304;4.870;2023-04-26T12:49:03;102195.88;;;17.73;45.99
69245;BME280;56357;52.304;4.870;2023-04-26T12:51:29;102189.66;;;17.82;45.63
69245;BME280;56357;52.304;4.870;2023-04-26T12:53:57;102193.19;;;17.78;45.74
69245;BME280;56357;52.304;4.870;2023-04-26T12:56:24;102197.94;;;17.66;46.27
69245;BME280;56357;52.304;4.870;2023-04-26T12:58:51;102202.72;;;17.65;45.94
69245;BME280;56357;52.304;4.870;2023-04-26T13:01:17;102200.41;;;17.62;45.77
69245;BME280;56357;52.304;4.870;2023-04-26T13:03:43;102201.25;;;17.74;45.66
69245;BME280;56357;52.304;4.870;2023-04-26T13:06:10;102192.59;;;17.76;45.58
69245;BME280;56357;52.304;4.870;2023-04-26T13:08:37;102196.00;;;17.66;45.71
69245;BME280;56357;52.304;4.870;2023-04-26T13:11:03;102190.13;;;17.79;45.95
69245;BME280;56357;52.304;4.870;2023-04-26T13:13:29;102185.41;;;17.68;45.99